Time;durP1;ratioP1;P1;durP2;ratioP2;P2;SDS_P1;SDS_P2;PMS_P1;PMS_P2;Temp;Humidity;BMP_temperature;BMP_pressure;BME280_temperature;BME280_humidity;BME280_pressure;Samples;Min_cycle;Max_cycle;Signal;HPM_P1;HPM_P2
2021/12/20 00:00:38;;;;;;;27.98;5.35;;;6.30;99.90;;;;;;5038605;28;20049;-65
2021/12/20 00:03:04;;;;;;;32.75;5.15;;;6.20;99.90;;;;;;5038518;28;20045;-67
2021/12/20 00:05:30;;;;;;;35.00;5.65;;;6.20;99.90;;;;;;5021211;28;20513;-67
2021/12/20 00:07:55;;;;;;;35.38;5.10;;;6.20;99.90;;;;;;5020978;28;20046;-66
2021/12/20 00:10:21;;;;;;;38.33;6.13;;;6.20;99.90;;;;;;5021297;28;20068;-67
2021/12/20 00:12:48;;;;;;;29.90;5.32;;;6.20;99.90;;;;;;5001632;28;20062;-67
2021/12/20 00:15:14;;;;;;;32.05;5.53;;;6.20;99.90;;;;;;5018632;28;20100;-67
2021/12/20 00:17:40;;;;;;;39.47;5.88;;;6.30;99.90;;;;;;5001236;28;20097;-67
2021/12/20 00:20:06;;;;;;;39.00;6.05;;;6.20;99.90;;;;;;5018330;28;20061;-68
2021/12/20 00:22:32;;;;;;;29.63;4.93;;;6.20;99.90;;;;;;5018548;28;20088;-66
2021/12/20 00:24:57;;;;;;;40.88;5.88;;;6.10;99.90;;;;;;5019071;28;20147;-67
2021/12/20 00:27:23;;;;;;;35.63;5.22;;;6.10;99.90;;;;;;5018305;28;20406;-66
2021/12/20 00:29:49;;;;;;;21.90;4.13;;;6.20;99.90;;;;;;5018358;28;20049;-66
2021/12/20 00:32:16;;;;;;;34.30;4.95;;;6.20;99.90;;;;;;5000695;28;20038;-67
2021/12/20 00:34:42;;;;;;;25.80;4.20;;;6.20;99.90;;;;;;5018035;28;20429;-66
2021/12/20 00:42:42;;;;;;;22.65;5.47;;;6.20;99.90;;;;;;5020041;28;20053;-66
2021/12/20 00:45:10;;;;;;;36.15;6.20;;;6.40;99.90;;;;;;5020457;28;20053;-65
2021/12/20 00:47:36;;;;;;;26.50;4.55;;;6.10;99.90;;;;;;5020483;28;20049;-67
2021/12/20 00:50:04;;;;;;;26.85;5.45;;;6.10;99.90;;;;;;5037683;28;20042;-66
2021/12/20 00:52:29;;;;;;;21.77;3.92;;;6.10;99.90;;;;;;5036687;28;20461;-65
2021/12/20 00:54:55;;;;;;;27.90;5.00;;;6.10;99.90;;;;;;5020112;28;20042;-67
2021/12/20 00:57:21;;;;;;;31.55;5.40;;;6.10;99.90;;;;;;5020114;28;20424;-67
2021/12/20 00:59:46;;;;;;;28.30;5.07;;;6.00;99.90;;;;;;5037847;28;20041;-65
2021/12/20 01:02:12;;;;;;;28.77;4.55;;;6.00;99.90;;;;;;5020360;28;20092;-67
2021/12/20 01:04:37;;;;;;;23.75;4.45;;;5.90;99.90;;;;;;5037409;28;20060;-66
2021/12/20 01:07:03;;;;;;;31.88;4.60;;;5.90;99.90;;;;;;5016088;28;20125;-65
2021/12/20 01:09:29;;;;;;;32.65;6.25;;;5.90;99.90;;;;;;5020165;28;20059;-65
2021/12/20 01:12:01;;;;;;;27.10;4.40;;;5.80;99.90;;;;;;5037202;28;20033;-66
2021/12/20 01:14:28;;;;;;;22.90;4.53;;;5.70;99.90;;;;;;5037758;28;20053;-66
2021/12/20 01:16:56;;;;;;;31.20;4.40;;;5.70;99.90;;;;;;5037222;28;20053;-67
2021/12/20 01:19:22;;;;;;;19.40;3.72;;;5.70;99.90;;;;;;5018925;28;20060;-66
2021/12/20 01:21:48;;;;;;;28.52;4.15;;;5.70;99.90;;;;;;5019839;28;20045;-65
2021/12/20 01:24:13;;;;;;;32.08;5.25;;;5.60;99.90;;;;;;5019327;28;20076;-67
2021/12/20 01:26:39;;;;;;;31.10;5.22;;;5.60;99.90;;;;;;5036963;28;20054;-67
2021/12/20 01:29:05;;;;;;;36.67;4.65;;;5.60;99.90;;;;;;5020385;28;20473;-66
2021/12/20 01:31:30;;;;;;;25.33;4.47;;;5.60;99.90;;;;;;5020043;28;20049;-66
2021/12/20 01:33:56;;;;;;;34.60;4.55;;;5.60;99.90;;;;;;5019704;28;20144;-67
2021/12/20 01:36:21;;;;;;;33.58;4.43;;;5.60;99.90;;;;;;5012079;28;20046;-65
2021/12/20 01:38:47;;;;;;;23.20;4.10;;;5.60;99.90;;;;;;4999961;28;20459;-66
2021/12/20 01:41:13;;;;;;;32.72;4.65;;;5.60;99.90;;;;;;4999653;28;20045;-67
2021/12/20 01:43:39;;;;;;;20.63;4.18;;;5.50;99.90;;;;;;5000140;28;20410;-64
2021/12/20 01:46:05;;;;;;;27.42;3.97;;;5.50;99.90;;;;;;5000395;28;20050;-64
2021/12/20 01:48:31;;;;;;;23.90;4.53;;;5.50;99.90;;;;;;4999125;28;20057;-66
2021/12/20 01:53:26;;;;;;;22.52;3.63;;;5.40;99.90;;;;;;4999942;28;20061;-65
2021/12/20 01:55:55;;;;;;;20.95;3.13;;;5.50;99.90;;;;;;4983043;28;20080;-66
2021/12/20 01:58:21;;;;;;;25.67;4.00;;;5.40;99.90;;;;;;5000200;28;20085;-65
2021/12/20 02:03:33;;;;;;;20.30;3.35;;;5.60;99.90;;;;;;5016764;28;20054;-66
2021/12/20 02:06:02;;;;;;;21.95;3.10;;;5.40;99.90;;;;;;5002930;28;20087;-65
2021/12/20 02:08:29;;;;;;;23.67;3.53;;;5.50;99.90;;;;;;5035690;28;20179;-65
2021/12/20 02:11:00;;;;;;;16.35;3.03;;;5.50;99.90;;;;;;5019133;28;20052;-67
2021/12/20 02:13:28;;;;;;;20.13;3.75;;;5.50;99.90;;;;;;5036041;28;20474;-67
2021/12/20 02:15:55;;;;;;;15.82;3.10;;;5.50;99.90;;;;;;5019078;28;20417;-66
2021/12/20 02:18:22;;;;;;;13.68;2.78;;;5.40;99.90;;;;;;5018739;28;20045;-66
2021/12/20 02:20:47;;;;;;;16.90;2.60;;;5.40;99.90;;;;;;5034181;28;20053;-65
2021/12/20 02:23:13;;;;;;;16.40;2.25;;;5.40;99.90;;;;;;5018463;28;20053;-67
2021/12/20 02:25:39;;;;;;;13.38;2.88;;;5.40;99.90;;;;;;5018872;28;20061;-65
2021/12/20 02:28:11;;;;;;;9.52;2.22;;;5.40;99.90;;;;;;5018094;28;20049;-65
2021/12/20 02:38:36;;;;;;;23.13;3.53;;;5.10;99.90;;;;;;4998683;28;20049;-65
2021/12/20 02:41:11;;;;;;;10.98;2.20;;;5.00;99.90;;;;;;4998796;28;20050;-67
2021/12/20 02:43:41;;;;;;;9.93;2.72;;;4.90;99.90;;;;;;4998505;28;20064;-67
2021/12/20 02:46:24;;;;;;;15.80;3.10;;;4.80;99.90;;;;;;5015614;28;20065;-66
2021/12/20 02:48:49;;;;;;;13.55;2.35;;;4.70;99.90;;;;;;5016229;28;20455;-66
2021/12/20 02:51:15;;;;;;;8.45;2.20;;;4.60;99.90;;;;;;4998353;28;20069;-65
2021/12/20 02:53:41;;;;;;;11.48;2.42;;;4.50;99.90;;;;;;4998623;28;20056;-66
2021/12/20 02:56:06;;;;;;;20.05;3.10;;;4.40;99.90;;;;;;4998499;28;20439;-66
2021/12/20 02:58:32;;;;;;;13.20;2.72;;;4.40;99.90;;;;;;5015560;28;20534;-66
2021/12/20 03:00:57;;;;;;;16.08;2.20;;;4.30;99.90;;;;;;4998416;28;20089;-65
2021/12/20 03:03:25;;;;;;;11.77;2.45;;;4.20;99.90;;;;;;5015671;28;20068;-65
2021/12/20 03:05:51;;;;;;;15.90;2.70;;;4.10;99.90;;;;;;5015439;28;20508;-67
2021/12/20 03:08:21;;;;;;;14.55;2.83;;;4.10;99.90;;;;;;5015552;28;20086;-67
2021/12/20 03:10:47;;;;;;;14.75;2.65;;;4.00;99.90;;;;;;5015428;28;20377;-67
2021/12/20 03:13:13;;;;;;;12.43;2.40;;;3.90;99.90;;;;;;4997811;28;20057;-66
2021/12/20 03:15:39;;;;;;;11.65;2.00;;;3.80;99.90;;;;;;5015180;28;20046;-66
2021/12/20 03:18:05;;;;;;;13.35;2.40;;;3.80;99.90;;;;;;4998278;28;20425;-66
2021/12/20 03:20:31;;;;;;;21.65;2.88;;;3.80;99.90;;;;;;4998141;28;20042;-67
2021/12/20 03:22:56;;;;;;;15.32;2.72;;;3.70;99.90;;;;;;5015404;28;20398;-65
2021/12/20 03:25:22;;;;;;;15.93;2.58;;;3.70;99.90;;;;;;4998326;28;20037;-65
2021/12/20 03:27:48;;;;;;;15.30;2.40;;;3.60;99.90;;;;;;4981665;28;20541;-65
2021/12/20 03:30:14;;;;;;;16.38;2.70;;;3.50;99.90;;;;;;4997965;28;20573;-64
2021/12/20 03:32:41;;;;;;;17.60;2.55;;;3.50;99.90;;;;;;4997808;28;20497;-66
2021/12/20 03:35:08;;;;;;;14.57;2.60;;;3.50;99.90;;;;;;4998711;28;20049;-65
2021/12/20 03:37:34;;;;;;;21.42;3.72;;;3.40;99.90;;;;;;5017533;28;20049;-66
2021/12/20 03:40:00;;;;;;;18.80;2.45;;;3.40;99.90;;;;;;5017345;28;20056;-65
2021/12/20 03:42:28;;;;;;;9.90;2.35;;;3.50;99.90;;;;;;5017577;28;20059;-66
2021/12/20 03:44:56;;;;;;;18.85;2.80;;;3.30;99.90;;;;;;5017624;28;20049;-67
2021/12/20 03:47:22;;;;;;;19.63;3.25;;;3.20;99.90;;;;;;5017502;28;20079;-65
2021/12/20 03:49:47;;;;;;;13.90;2.40;;;3.20;99.90;;;;;;5017623;28;20046;-65
2021/12/20 03:52:13;;;;;;;14.80;2.60;;;3.10;99.90;;;;;;5016950;28;20049;-66
2021/12/20 03:54:39;;;;;;;21.38;2.70;;;3.00;99.90;;;;;;5017097;28;20436;-68
2021/12/20 03:57:05;;;;;;;14.23;2.35;;;3.00;99.90;;;;;;5017333;28;20049;-66
2021/12/20 03:59:31;;;;;;;12.70;2.50;;;3.00;99.90;;;;;;5017082;28;20089;-65
2021/12/20 04:01:57;;;;;;;13.98;2.47;;;2.90;99.90;;;;;;5034567;28;20081;-67
2021/12/20 04:04:23;;;;;;;12.48;2.60;;;2.90;99.90;;;;;;5017607;28;20061;-66
2021/12/20 04:06:49;;;;;;;11.77;2.15;;;2.80;99.90;;;;;;5019508;28;20050;-65
2021/12/20 04:09:15;;;;;;;16.05;2.40;;;2.80;99.90;;;;;;4997205;28;20049;-66
2021/12/20 04:11:40;;;;;;;14.27;2.35;;;2.80;99.90;;;;;;4998269;28;20133;-67
2021/12/20 04:14:06;;;;;;;12.57;2.33;;;2.70;99.90;;;;;;5181532;22;20480;-67
2021/12/20 04:16:33;;;;;;;11.57;2.25;;;2.70;99.90;;;;;;5056732;28;20354;-66
2021/12/20 04:18:59;;;;;;;12.45;2.45;;;2.60;99.90;;;;;;5056621;28;20056;-65
2021/12/20 04:21:24;;;;;;;16.95;2.78;;;2.60;99.90;;;;;;5056863;28;20055;-65
2021/12/20 04:23:50;;;;;;;10.88;2.15;;;2.50;99.90;;;;;;5056643;28;20131;-66
2021/12/20 04:26:15;;;;;;;19.38;2.78;;;2.50;99.90;;;;;;5074375;28;20056;-67
2021/12/20 04:28:41;;;;;;;17.63;2.97;;;2.40;99.90;;;;;;5077181;28;20040;-66
2021/12/20 04:31:07;;;;;;;12.90;2.40;;;2.70;99.90;;;;;;5077493;28;20359;-66
2021/12/20 04:33:33;;;;;;;16.30;2.45;;;2.30;99.90;;;;;;5078390;28;20059;-66
2021/12/20 04:35:58;;;;;;;14.65;3.15;;;2.30;99.90;;;;;;5060593;28;20128;-65
2021/12/20 04:38:27;;;;;;;13.35;2.80;;;2.30;99.90;;;;;;5060443;28;20533;-66
2021/12/20 04:40:53;;;;;;;10.75;2.17;;;2.20;99.90;;;;;;5077584;28;20048;-65
2021/12/20 04:43:19;;;;;;;12.45;2.42;;;2.20;99.90;;;;;;5077251;28;20048;-66
2021/12/20 04:45:44;;;;;;;14.60;2.95;;;2.20;99.90;;;;;;5060488;28;20086;-65
2021/12/20 04:48:10;;;;;;;18.45;2.60;;;2.10;99.90;;;;;;5060237;28;20056;-67
2021/12/20 04:50:36;;;;;;;11.90;2.33;;;2.10;99.90;;;;;;5060356;28;20433;-66
2021/12/20 04:53:02;;;;;;;12.20;2.47;;;2.10;99.90;;;;;;5057376;28;20060;-64
2021/12/20 04:55:29;;;;;;;18.90;2.70;;;2.00;99.90;;;;;;5057845;28;20096;-64
2021/12/20 04:57:56;;;;;;;15.55;2.53;;;2.00;99.90;;;;;;5057421;28;20045;-66
2021/12/20 05:00:27;;;;;;;16.30;2.47;;;2.00;99.90;;;;;;5023525;28;20053;-65
2021/12/20 05:02:53;;;;;;;20.25;3.97;;;1.90;99.90;;;;;;5040007;28;20045;-65
2021/12/20 05:05:20;;;;;;;16.10;3.05;;;1.90;99.90;;;;;;5023415;28;20259;-65
2021/12/20 05:07:47;;;;;;;14.20;2.72;;;1.80;99.90;;;;;;5057105;28;20045;-66
2021/12/20 05:10:24;;;;;;;13.50;2.45;;;1.80;99.90;;;;;;5057004;28;20059;-66
2021/12/20 05:12:51;;;;;;;15.50;2.95;;;1.80;99.90;;;;;;5042272;28;20063;-66
2021/12/20 05:15:16;;;;;;;16.65;3.35;;;1.80;99.90;;;;;;5076117;28;20056;-65
2021/12/20 05:17:42;;;;;;;18.23;3.20;;;1.80;99.90;;;;;;5059722;28;20044;-65
2021/12/20 05:20:08;;;;;;;18.13;3.10;;;1.70;99.90;;;;;;5059330;28;20052;-66
2021/12/20 05:22:33;;;;;;;17.23;2.83;;;1.70;99.90;;;;;;5059450;28;20452;-65
2021/12/20 05:24:59;;;;;;;14.88;2.80;;;1.70;99.90;;;;;;5076961;28;20055;-65
2021/12/20 05:27:25;;;;;;;19.08;3.10;;;1.70;99.90;;;;;;5043477;28;20056;-67
2021/12/20 05:29:50;;;;;;;17.20;2.55;;;1.60;99.90;;;;;;5076894;28;20503;-65
2021/12/20 05:32:16;;;;;;;19.45;3.22;;;1.70;99.90;;;;;;5076622;28;20049;-66
2021/12/20 05:34:42;;;;;;;11.63;2.70;;;1.60;99.90;;;;;;5042209;28;20365;-64
2021/12/20 05:37:07;;;;;;;10.65;2.92;;;2.10;99.90;;;;;;5058904;28;20194;-67
2021/12/20 05:39:33;;;;;;;19.00;2.92;;;1.60;99.90;;;;;;5058876;28;20044;-67
2021/12/20 05:41:59;;;;;;;16.50;3.05;;;1.50;99.90;;;;;;5059719;28;20135;-65
2021/12/20 05:44:24;;;;;;;12.90;2.53;;;1.50;99.90;;;;;;5059511;28;20107;-65
2021/12/20 05:46:50;;;;;;;14.90;2.85;;;1.50;99.90;;;;;;5059151;28;20472;-66
2021/12/20 05:49:15;;;;;;;16.98;3.60;;;1.40;99.90;;;;;;5059321;28;20392;-65
2021/12/20 05:51:41;;;;;;;20.67;3.38;;;1.50;99.90;;;;;;5068236;28;20373;-67
2021/12/20 05:54:07;;;;;;;19.40;4.25;;;1.50;99.90;;;;;;5056364;28;20052;-64
2021/12/20 05:56:32;;;;;;;12.07;3.28;;;1.50;99.90;;;;;;5045092;28;20134;-66
2021/12/20 05:58:58;;;;;;;16.58;3.47;;;1.40;99.90;;;;;;5057416;28;20052;-65
2021/12/20 06:01:24;;;;;;;12.20;2.47;;;1.40;99.90;;;;;;5056968;28;20045;-65
2021/12/20 06:03:49;;;;;;;9.43;2.42;;;1.40;99.90;;;;;;5052321;28;20052;-67
2021/12/20 06:06:15;;;;;;;10.68;2.50;;;1.30;99.90;;;;;;5076145;28;20048;-67
2021/12/20 06:08:41;;;;;;;16.05;3.10;;;1.30;99.90;;;;;;5058188;28;20407;-67
2021/12/20 06:11:06;;;;;;;11.27;2.22;;;1.20;99.90;;;;;;5075694;28;20048;-65
2021/12/20 06:13:32;;;;;;;12.13;2.72;;;1.20;99.90;;;;;;5054627;28;20052;-67
2021/12/20 06:15:57;;;;;;;13.80;3.22;;;1.20;99.90;;;;;;5057576;28;20060;-67
2021/12/20 06:18:23;;;;;;;16.35;2.90;;;1.20;99.90;;;;;;5075468;28;20052;-67
2021/12/20 06:20:49;;;;;;;12.88;2.63;;;1.20;99.90;;;;;;5057412;28;20059;-65
2021/12/20 06:23:14;;;;;;;17.42;2.80;;;1.10;99.90;;;;;;5074769;28;20048;-66
2021/12/20 06:25:40;;;;;;;12.27;2.88;;;1.10;99.90;;;;;;5056935;28;20373;-67
2021/12/20 06:28:06;;;;;;;14.45;3.28;;;1.10;99.90;;;;;;5056913;28;20511;-67
2021/12/20 06:30:31;;;;;;;20.67;3.15;;;1.10;99.90;;;;;;5057509;28;20472;-67
2021/12/20 06:32:57;;;;;;;16.98;2.47;;;1.00;99.90;;;;;;5075172;28;20455;-65
2021/12/20 06:35:23;;;;;;;15.35;3.00;;;1.00;99.90;;;;;;5075220;28;20040;-66
2021/12/20 06:37:59;;;;;;;13.75;2.72;;;0.90;99.90;;;;;;5060864;28;20051;-65
2021/12/20 06:40:25;;;;;;;5.57;2.20;;;1.00;99.90;;;;;;5057691;28;20045;-64
2021/12/20 06:42:50;;;;;;;18.85;2.75;;;0.90;99.90;;;;;;5075055;28;20044;-65
2021/12/20 06:45:16;;;;;;;12.48;2.65;;;0.90;99.90;;;;;;5075206;28;20364;-65
2021/12/20 06:47:42;;;;;;;28.10;4.97;;;0.90;99.90;;;;;;5069519;28;20040;-64
2021/12/20 06:50:08;;;;;;;21.85;3.60;;;0.80;99.90;;;;;;5076478;28;20106;-66
2021/12/20 06:52:34;;;;;;;21.63;4.13;;;0.80;99.90;;;;;;5077033;28;20110;-65
2021/12/20 06:55:00;;;;;;;14.07;3.28;;;0.80;99.90;;;;;;5088787;28;20048;-64
2021/12/20 06:57:25;;;;;;;17.90;3.30;;;0.70;99.90;;;;;;5074187;28;20059;-66
2021/12/20 06:59:51;;;;;;;19.42;3.55;;;0.70;99.90;;;;;;5069671;28;20048;-66
2021/12/20 07:02:18;;;;;;;22.15;3.53;;;0.70;99.90;;;;;;5040942;28;20061;-67
2021/12/20 07:04:44;;;;;;;15.25;3.70;;;0.70;99.90;;;;;;5056737;28;20040;-66
2021/12/20 07:07:12;;;;;;;14.98;2.88;;;0.70;99.90;;;;;;5074460;28;20040;-66
2021/12/20 07:09:38;;;;;;;15.98;3.10;;;0.60;99.90;;;;;;5044740;28;20064;-66
2021/12/20 07:12:04;;;;;;;23.50;4.57;;;0.60;99.90;;;;;;5054515;28;20105;-66
2021/12/20 07:14:30;;;;;;;16.65;4.03;;;0.60;99.90;;;;;;5054553;28;20521;-66
2021/12/20 07:16:56;;;;;;;25.35;4.32;;;0.50;99.90;;;;;;5044166;28;20129;-67
2021/12/20 07:19:22;;;;;;;13.75;3.40;;;0.50;99.90;;;;;;5056822;28;20044;-66
2021/12/20 07:21:48;;;;;;;21.25;4.22;;;0.50;99.90;;;;;;5073638;28;20048;-65
2021/12/20 07:24:13;;;;;;;18.02;3.90;;;0.50;99.90;;;;;;5055826;28;20135;-66
2021/12/20 07:26:43;;;;;;;16.17;3.55;;;0.50;99.90;;;;;;5074359;28;20049;-66
2021/12/20 07:29:09;;;;;;;17.80;3.60;;;0.40;99.90;;;;;;5056750;28;20037;-66
2021/12/20 07:31:34;;;;;;;14.05;2.85;;;0.40;99.90;;;;;;5057088;28;20409;-66
2021/12/20 07:34:00;;;;;;;19.55;3.85;;;0.40;99.90;;;;;;5074055;28;20075;-67
2021/12/20 07:36:25;;;;;;;14.32;3.30;;;0.40;99.90;;;;;;5056329;28;20060;-67
2021/12/20 07:38:52;;;;;;;14.98;3.58;;;0.50;99.90;;;;;;5056466;28;20056;-65
2021/12/20 07:41:20;;;;;;;16.65;3.65;;;0.30;99.90;;;;;;5074418;28;20427;-65
2021/12/20 07:43:46;;;;;;;16.13;4.00;;;0.30;99.90;;;;;;5056581;28;20341;-64
2021/12/20 07:46:12;;;;;;;20.02;4.30;;;0.40;99.90;;;;;;5055643;28;20095;-65
2021/12/20 07:48:37;;;;;;;21.17;3.97;;;0.30;99.90;;;;;;5073622;28;20084;-66
2021/12/20 07:51:04;;;;;;;14.35;3.97;;;0.40;99.90;;;;;;5056149;28;20132;-65
2021/12/20 07:53:30;;;;;;;19.15;3.78;;;0.30;99.90;;;;;;5055874;28;20036;-64
2021/12/20 07:55:56;;;;;;;27.30;4.30;;;0.30;99.90;;;;;;5058253;28;20339;-65
2021/12/20 07:58:22;;;;;;;18.70;5.32;;;0.30;99.90;;;;;;5053028;28;20049;-66
2021/12/20 08:00:47;;;;;;;20.27;5.28;;;0.30;99.90;;;;;;5047569;28;20060;-66
2021/12/20 08:03:13;;;;;;;23.92;5.38;;;0.30;99.90;;;;;;5068685;28;20047;-66
2021/12/20 08:05:39;;;;;;;24.73;4.90;;;0.30;99.90;;;;;;5078084;28;20036;-67
2021/12/20 08:08:06;;;;;;;23.20;5.32;;;0.30;99.90;;;;;;5060785;28;20442;-66
2021/12/20 08:10:32;;;;;;;20.10;5.43;;;0.30;99.90;;;;;;5060382;28;20102;-65
2021/12/20 08:12:58;;;;;;;20.27;5.10;;;0.30;99.90;;;;;;5060085;28;20049;-65
2021/12/20 08:15:26;;;;;;;23.85;4.75;;;0.30;99.90;;;;;;5077184;28;20063;-66
2021/12/20 08:17:53;;;;;;;16.83;4.10;;;0.30;99.90;;;;;;5058004;28;20036;-65
2021/12/20 08:20:19;;;;;;;20.25;4.70;;;0.30;99.90;;;;;;5083824;28;20047;-67
2021/12/20 08:22:45;;;;;;;26.00;4.95;;;0.30;99.90;;;;;;5097649;28;20158;-66
2021/12/20 08:25:11;;;;;;;17.83;5.20;;;0.70;99.90;;;;;;5060310;28;20040;-66
2021/12/20 08:27:37;;;;;;;22.45;4.72;;;0.60;99.90;;;;;;5039241;28;20059;-67
2021/12/20 08:30:04;;;;;;;21.63;4.60;;;0.30;99.90;;;;;;5056440;28;20393;-66
2021/12/20 08:32:29;;;;;;;21.45;4.68;;;0.30;99.90;;;;;;5039261;28;20103;-65
2021/12/20 08:34:55;;;;;;;33.85;5.45;;;0.30;99.90;;;;;;5056817;28;20056;-67
2021/12/20 08:37:21;;;;;;;28.80;5.57;;;0.30;99.90;;;;;;5057191;28;20049;-67
2021/12/20 08:39:47;;;;;;;18.98;4.82;;;0.30;99.90;;;;;;5039441;28;20049;-67
2021/12/20 08:42:12;;;;;;;27.48;5.15;;;0.30;99.90;;;;;;5057177;28;20055;-64
2021/12/20 08:44:38;;;;;;;19.85;5.15;;;0.40;99.90;;;;;;5038528;28;20037;-64
2021/12/20 08:47:04;;;;;;;25.35;5.80;;;0.40;99.90;;;;;;5038915;28;20041;-67
2021/12/20 08:49:30;;;;;;;21.73;5.05;;;0.40;99.90;;;;;;5058307;28;20467;-65
2021/12/20 08:51:56;;;;;;;31.38;5.90;;;0.40;99.90;;;;;;5038674;28;20045;-65
2021/12/20 08:54:24;;;;;;;22.27;5.35;;;0.40;99.90;;;;;;5039107;28;20053;-65
2021/12/20 08:56:51;;;;;;;22.92;5.75;;;0.40;99.90;;;;;;5039294;28;20088;-66
2021/12/20 08:59:17;;;;;;;17.85;5.60;;;1.00;99.90;;;;;;5056649;28;20052;-67
2021/12/20 09:01:42;;;;;;;23.85;5.30;;;0.50;99.90;;;;;;5039467;28;20065;-67
2021/12/20 09:04:08;;;;;;;20.67;5.53;;;0.50;99.90;;;;;;5056851;28;20369;-67
2021/12/20 09:06:38;;;;;;;20.27;5.13;;;0.50;99.90;;;;;;5056693;28;20052;-64
2021/12/20 09:09:05;;;;;;;25.58;5.65;;;0.60;99.90;;;;;;5039202;28;20048;-66
2021/12/20 09:11:30;;;;;;;20.30;5.57;;;0.60;99.90;;;;;;5057033;28;20105;-66
2021/12/20 09:13:56;;;;;;;22.70;5.38;;;0.60;99.90;;;;;;5038270;28;20136;-66
2021/12/20 09:16:22;;;;;;;22.25;5.78;;;0.60;99.90;;;;;;5039204;28;20053;-67
2021/12/20 09:18:48;;;;;;;28.75;7.45;;;0.60;99.90;;;;;;5061056;28;20037;-66
2021/12/20 09:21:15;;;;;;;23.05;6.72;;;0.60;99.90;;;;;;5064373;28;20515;-67
2021/12/20 09:23:41;;;;;;;30.50;7.28;;;0.70;99.90;;;;;;5068030;28;20048;-67
2021/12/20 09:26:07;;;;;;;33.25;8.07;;;0.70;99.90;;;;;;5054527;28;20139;-67
2021/12/20 09:28:34;;;;;;;18.90;8.30;;;0.70;99.90;;;;;;5055986;28;20135;-66
2021/12/20 09:31:00;;;;;;;25.10;8.45;;;0.80;99.90;;;;;;5059214;28;20052;-67
2021/12/20 09:33:26;;;;;;;27.35;9.45;;;0.80;99.90;;;;;;5042492;28;20127;-68
2021/12/20 09:35:53;;;;;;;29.90;9.23;;;0.80;99.90;;;;;;5072920;28;20147;-67
2021/12/20 09:38:20;;;;;;;26.48;9.93;;;0.90;99.90;;;;;;5040090;28;20041;-68
2021/12/20 09:41:13;;;;;;;26.67;8.02;;;0.90;99.90;;;;;;5054095;28;20048;-68
2021/12/20 09:43:43;;;;;;;31.58;9.82;;;1.00;99.90;;;;;;5050413;28;20060;-67
2021/12/20 09:46:09;;;;;;;28.23;9.35;;;1.00;99.90;;;;;;5076796;28;20360;-65
2021/12/20 09:48:35;;;;;;;29.98;8.10;;;1.10;99.90;;;;;;5076126;28;20116;-66
2021/12/20 09:51:03;;;;;;;29.23;8.20;;;1.10;99.90;;;;;;5076585;28;20110;-68
2021/12/20 09:53:30;;;;;;;36.50;9.70;;;1.10;99.90;;;;;;5076329;28;20060;-66
2021/12/20 09:55:58;;;;;;;33.75;10.77;;;1.20;99.90;;;;;;5076329;28;20052;-67
2021/12/20 09:58:25;;;;;;;37.67;10.57;;;1.20;99.90;;;;;;5058774;28;20098;-66
2021/12/20 10:00:52;;;;;;;29.73;9.77;;;1.30;99.90;;;;;;5058174;28;20044;-69
2021/12/20 10:03:24;;;;;;;33.40;8.98;;;1.30;99.90;;;;;;5052979;28;20500;-66
2021/12/20 10:05:55;;;;;;;25.42;9.43;;;1.30;99.90;;;;;;5055813;28;20040;-66
2021/12/20 10:08:30;;;;;;;35.80;8.57;;;1.40;99.90;;;;;;5055140;28;20092;-66
2021/12/20 10:10:56;;;;;;;30.42;9.23;;;1.50;99.90;;;;;;5055910;28;20091;-68
2021/12/20 10:13:28;;;;;;;32.67;10.55;;;1.50;99.90;;;;;;5054499;28;20142;-68
2021/12/20 10:15:56;;;;;;;46.55;11.80;;;1.50;99.90;;;;;;5056161;28;20056;-66
2021/12/20 10:18:23;;;;;;;47.85;11.40;;;1.60;99.90;;;;;;5055478;28;20048;-67
2021/12/20 10:20:57;;;;;;;40.38;10.20;;;1.60;99.90;;;;;;5054993;28;20155;-68
2021/12/20 10:23:25;;;;;;;36.15;10.13;;;1.70;99.90;;;;;;5054337;28;20350;-68
2021/12/20 10:25:54;;;;;;;34.60;9.60;;;1.70;99.90;;;;;;5054388;28;20075;-65
2021/12/20 10:28:24;;;;;;;38.03;8.45;;;1.80;99.90;;;;;;5055023;28;20057;-67
2021/12/20 10:31:06;;;;;;;40.00;6.70;;;1.80;99.90;;;;;;5056925;28;20102;-67
2021/12/20 10:33:32;;;;;;;40.92;7.40;;;1.90;99.90;;;;;;5071215;28;20043;-68
2021/12/20 10:36:04;;;;;;;34.72;8.57;;;2.00;99.90;;;;;;5077244;28;20129;-67
2021/12/20 10:38:38;;;;;;;28.42;8.23;;;2.50;99.90;;;;;;5094243;28;20044;-66
2021/12/20 10:41:12;;;;;;;39.58;5.43;;;2.10;99.90;;;;;;5081707;28;20071;-68
2021/12/20 10:43:45;;;;;;;32.28;5.85;;;2.10;99.90;;;;;;5054033;28;20060;-66
2021/12/20 10:46:16;;;;;;;22.05;4.65;;;2.20;99.90;;;;;;5051898;28;20044;-67
2021/12/20 10:48:44;;;;;;;26.92;4.80;;;2.20;99.90;;;;;;5076706;28;20052;-67
2021/12/20 10:51:25;;;;;;;32.13;5.07;;;2.30;99.90;;;;;;5059730;28;20044;-68
2021/12/20 10:53:59;;;;;;;25.50;4.32;;;2.30;99.90;;;;;;5093820;28;20534;-66
2021/12/20 10:56:27;;;;;;;22.70;3.60;;;2.40;99.90;;;;;;5076312;28;20062;-68
2021/12/20 10:58:54;;;;;;;32.10;5.38;;;2.40;99.90;;;;;;5094374;28;20063;-66
2021/12/20 11:04:14;;;;;;;35.67;5.18;;;2.50;99.90;;;;;;5073731;28;20362;-66
2021/12/20 11:09:18;;;;;;;;;;;2.60;99.90;;;;;;5074129;28;20062;-67
2021/12/20 11:11:48;;;;;;;23.80;4.57;;;2.70;99.90;;;;;;5073937;28;19920;-67
2021/12/20 11:14:15;;;;;;;23.20;4.57;;;3.30;99.90;;;;;;5056798;28;20127;-67
2021/12/20 11:16:44;;;;;;;18.63;3.85;;;2.80;99.90;;;;;;5056786;28;20044;-67
2021/12/20 11:19:11;;;;;;;14.30;3.40;;;2.80;99.90;;;;;;5040580;28;20045;-66
2021/12/20 11:21:45;;;;;;;17.67;3.67;;;2.80;99.90;;;;;;5087726;28;20048;-66
2021/12/20 11:24:14;;;;;;;20.08;3.47;;;2.90;99.90;;;;;;5095126;28;20465;-66
2021/12/20 11:26:40;;;;;;;17.38;3.33;;;2.90;99.90;;;;;;5095172;28;20048;-67
2021/12/20 11:29:06;;;;;;;13.55;3.28;;;2.90;99.90;;;;;;5094943;28;20491;-65
2021/12/20 11:31:34;;;;;;;19.52;3.65;;;3.10;99.90;;;;;;5060046;28;20076;-67
2021/12/20 11:34:01;;;;;;;20.50;3.17;;;3.10;99.90;;;;;;5074477;28;20071;-65
2021/12/20 11:36:26;;;;;;;16.67;3.15;;;3.20;99.90;;;;;;5074301;28;20456;-66
2021/12/20 11:38:53;;;;;;;17.15;4.70;;;3.20;99.90;;;;;;5074082;28;20052;-68
2021/12/20 11:41:18;;;;;;;24.20;4.68;;;3.20;99.90;;;;;;5057127;28;20063;-66
2021/12/20 11:43:46;;;;;;;22.35;4.22;;;3.20;99.90;;;;;;5074634;28;20037;-67
2021/12/20 11:46:14;;;;;;;15.13;4.20;;;3.30;99.90;;;;;;5056671;28;20044;-68
2021/12/20 11:48:41;;;;;;;22.58;6.45;;;3.30;99.90;;;;;;5057040;28;20056;-67
2021/12/20 11:51:07;;;;;;;29.85;7.70;;;3.30;99.90;;;;;;5074606;28;20113;-66
2021/12/20 11:53:37;;;;;;;24.58;5.72;;;3.40;99.90;;;;;;5064962;28;20040;-65
2021/12/20 11:56:03;;;;;;;20.73;6.43;;;3.50;99.90;;;;;;5067402;28;20048;-67
2021/12/20 11:58:33;;;;;;;23.17;6.40;;;3.50;99.90;;;;;;5070047;28;20373;-67
2021/12/20 12:01:05;;;;;;;28.83;6.03;;;3.50;99.90;;;;;;5072946;28;20036;-66
2021/12/20 12:03:33;;;;;;;16.33;5.57;;;3.60;99.90;;;;;;5056718;28;20048;-65
2021/12/20 12:06:04;;;;;;;33.65;6.68;;;3.60;99.90;;;;;;5073994;28;20441;-66
2021/12/20 12:08:35;;;;;;;28.83;6.82;;;3.60;99.90;;;;;;5074366;28;20037;-66
2021/12/20 12:11:24;;;;;;;36.13;16.00;;;3.70;99.90;;;;;;5056577;28;20124;-66
2021/12/20 12:14:01;;;;;;;23.55;8.68;;;3.70;99.90;;;;;;5049519;28;20048;-65
2021/12/20 12:16:53;;;;;;;33.40;8.23;;;3.80;99.90;;;;;;5045187;28;20124;-67
2021/12/20 12:19:42;;;;;;;25.13;5.72;;;3.80;99.90;;;;;;5011217;28;20048;-65
2021/12/20 12:22:26;;;;;;;14.85;4.85;;;3.90;99.90;;;;;;5032863;28;20361;-65
2021/12/20 12:24:52;;;;;;;;;;;4.00;99.90;;;;;;5054481;28;20040;-65
2021/12/20 12:27:33;;;;;;;23.90;5.75;;;4.00;99.90;;;;;;5036732;28;19977;-65
2021/12/20 12:30:13;;;;;;;24.75;6.10;;;4.00;99.90;;;;;;5054123;28;20041;-65
2021/12/20 12:33:02;;;;;;;24.48;6.53;;;4.00;99.90;;;;;;5036688;28;20049;-66
2021/12/20 12:35:41;;;;;;;20.60;4.88;;;4.00;99.90;;;;;;5036363;28;20049;-67
2021/12/20 12:38:17;;;;;;;22.75;5.85;;;4.00;99.90;;;;;;5030948;28;20049;-66
2021/12/20 12:40:51;;;;;;;18.95;5.40;;;4.00;99.90;;;;;;5024818;28;20050;-66
2021/12/20 12:43:41;;;;;;;24.83;5.45;;;4.00;99.90;;;;;;5015010;28;20057;-67
2021/12/20 12:46:07;;;;;;;19.00;5.03;;;4.00;99.90;;;;;;5021413;28;20037;-66
2021/12/20 12:48:42;;;;;;;21.05;5.10;;;4.10;99.90;;;;;;5054853;28;20118;-66
2021/12/20 12:51:23;;;;;;;23.35;6.10;;;4.10;99.90;;;;;;5056769;28;20071;-68
2021/12/20 12:53:55;;;;;;;19.52;5.40;;;4.00;99.90;;;;;;5056844;28;20045;-67
2021/12/20 12:56:27;;;;;;;24.02;6.10;;;4.10;99.90;;;;;;5060931;28;20127;-68
2021/12/20 12:59:25;;;;;;;16.08;5.32;;;4.10;99.90;;;;;;5059646;28;20049;-66
2021/12/20 13:01:58;;;;;;;23.70;5.30;;;4.20;99.90;;;;;;5032864;28;20045;-68
2021/12/20 13:04:44;;;;;;;19.45;4.07;;;4.70;99.90;;;;;;5077230;28;20087;-67
2021/12/20 13:07:10;;;;;;;23.15;5.18;;;4.20;99.90;;;;;;5059411;28;20143;-66
2021/12/20 13:09:44;;;;;;;17.40;6.65;;;4.20;99.90;;;;;;5076977;28;20052;-65
2021/12/20 13:12:14;;;;;;;20.58;6.70;;;4.20;99.90;;;;;;5076929;28;20056;-66
2021/12/20 13:15:11;;;;;;;25.27;6.68;;;4.20;99.90;;;;;;5076785;28;20084;-67